createdAt,value
2023-01-04T00:02:47.951Z,8.15
2023-01-04T00:07:50.258Z,7.88
2023-01-04T00:12:52.672Z,7.69
2023-01-04T00:17:54.794Z,7.88
2023-01-04T00:22:57.026Z,7.92
2023-01-04T00:27:59.171Z,8.01
2023-01-04T00:33:01.359Z,7.79
2023-01-04T00:38:06.343Z,8.02
2023-01-04T00:43:08.487Z,7.91
2023-01-04T00:48:10.652Z,7.75
2023-01-04T00:53:14.006Z,7.76
2023-01-04T00:58:16.139Z,7.56
2023-01-04T01:03:18.436Z,7.59
2023-01-04T01:08:26.478Z,7.63
2023-01-04T01:13:28.695Z,7.53
2023-01-04T01:18:31.298Z,7.64
2023-01-04T01:23:33.505Z,7.66
2023-01-04T01:28:37.722Z,7.70
2023-01-04T01:33:41.743Z,7.94
2023-01-04T01:38:44.710Z,8.02
2023-01-04T01:44:00.452Z,8.06
2023-01-04T01:49:28.809Z,6.82
2023-01-04T01:54:37.422Z,7.58
2023-01-04T01:59:43.138Z,7.60
2023-01-04T02:04:48.957Z,7.95
2023-01-04T02:09:51.949Z,8.07
2023-01-04T02:14:54.481Z,8.07
2023-01-04T02:20:18.126Z,8.31
2023-01-04T02:25:38.564Z,8.49
2023-01-04T02:30:59.745Z,8.33
2023-01-04T02:36:14.816Z,8.43
2023-01-04T02:41:28.462Z,8.02
2023-01-04T02:46:36.247Z,7.88
2023-01-04T02:51:39.497Z,8.15
2023-01-04T02:57:05.622Z,8.28
2023-01-04T03:02:32.581Z,8.33
2023-01-04T03:07:53.659Z,8.19
2023-01-04T03:13:06.389Z,8.13
2023-01-04T03:18:17.868Z,8.27
2023-01-04T03:23:42.896Z,8.01
2023-01-04T03:29:04.613Z,8.03
2023-01-04T03:34:28.085Z,7.98
2023-01-04T03:40:02.365Z,7.77
2023-01-04T03:45:42.379Z,7.92
2023-01-04T03:50:57.600Z,7.99
2023-01-04T03:56:01.096Z,8.10
2023-01-04T04:01:05.590Z,7.84
2023-01-04T04:06:28.356Z,7.87
2023-01-04T04:11:31.611Z,7.49
2023-01-04T04:16:33.843Z,7.88
2023-01-04T04:21:36.139Z,7.23
2023-01-04T04:26:38.307Z,7.16
2023-01-04T04:31:41.106Z,7.13
2023-01-04T04:36:43.379Z,6.62
2023-01-04T04:41:45.540Z,7.14
2023-01-04T04:46:49.339Z,7.51
2023-01-04T04:51:51.513Z,7.78
2023-01-04T04:56:53.736Z,7.78
2023-01-04T05:02:01.905Z,7.70
2023-01-04T05:07:08.909Z,7.96
2023-01-04T05:12:32.949Z,7.63
2023-01-04T05:17:37.595Z,7.85
2023-01-04T05:22:39.807Z,7.84
2023-01-04T05:27:42.000Z,7.55
2023-01-04T05:32:44.250Z,7.52
2023-01-04T05:37:46.743Z,7.75
2023-01-04T05:42:49.645Z,7.87
2023-01-04T05:47:53.385Z,7.51
2023-01-04T05:52:55.544Z,7.72
2023-01-04T05:57:57.688Z,7.47
2023-01-04T06:03:00.216Z,7.60
2023-01-04T06:08:02.507Z,7.75
2023-01-04T06:13:04.752Z,7.65
2023-01-04T06:18:12.952Z,7.58
2023-01-04T06:23:15.708Z,7.34
2023-01-04T06:28:17.899Z,7.33
2023-01-04T06:33:20.063Z,7.18
2023-01-04T06:38:25.351Z,7.31
2023-01-04T06:43:27.618Z,6.74
2023-01-04T06:48:33.229Z,7.20
2023-01-04T06:53:35.475Z,7.13
2023-01-04T06:58:38.091Z,7.36
2023-01-04T07:03:40.312Z,6.87
2023-01-04T07:08:42.532Z,7.10
2023-01-04T07:13:44.796Z,7.18
2023-01-04T07:18:46.963Z,6.95
2023-01-04T07:23:49.130Z,7.16
2023-01-04T07:29:09.657Z,7.34
2023-01-04T07:34:11.955Z,7.48
2023-01-04T07:39:16.599Z,7.34
2023-01-04T07:44:18.886Z,7.34
2023-01-04T07:49:21.375Z,7.34
2023-01-04T07:54:28.565Z,7.54
2023-01-04T07:59:30.763Z,7.41
2023-01-04T08:04:35.359Z,7.50
2023-01-04T08:09:37.668Z,7.48
2023-01-04T08:14:39.855Z,7.65
2023-01-04T08:19:42.164Z,7.45
2023-01-04T08:24:44.403Z,7.92
2023-01-04T08:29:50.355Z,8.25
2023-01-04T08:34:53.860Z,8.56
2023-01-04T08:39:59.041Z,8.76
2023-01-04T08:45:02.099Z,9.03
2023-01-04T08:50:10.251Z,7.63
2023-01-04T08:55:20.008Z,7.95
2023-01-04T09:00:25.271Z,8.50
2023-01-04T09:05:29.251Z,9.30
2023-01-04T09:10:31.472Z,9.25
2023-01-04T09:15:34.497Z,9.44
2023-01-04T09:20:38.524Z,9.87
2023-01-04T09:25:40.827Z,9.73
2023-01-04T09:30:43.136Z,9.76
2023-01-04T09:35:45.443Z,10.49
2023-01-04T09:40:53.321Z,10.84
2023-01-04T09:46:07.442Z,10.99
2023-01-04T09:51:18.385Z,11.21
2023-01-04T09:56:38.193Z,11.37
2023-01-04T10:01:47.092Z,11.87
2023-01-04T10:06:50.539Z,11.97
2023-01-04T10:12:22.538Z,11.89
2023-01-04T10:19:37.070Z,11.49
2023-01-04T10:24:01.575Z,12.32
2023-01-04T10:29:27.411Z,11.90
2023-01-04T10:34:38.151Z,11.84
2023-01-04T10:39:41.444Z,12.18
2023-01-04T10:45:01.937Z,11.94
2023-01-04T10:50:19.482Z,11.57
2023-01-04T10:55:34.703Z,11.70
2023-01-04T11:00:50.943Z,12.44
2023-01-04T11:06:23.563Z,12.53
2023-01-04T11:17:16.745Z,12.51
2023-01-04T11:22:43.833Z,12.96
2023-01-04T11:28:27.605Z,12.81
2023-01-04T11:39:08.809Z,13.48
2023-01-04T11:44:22.458Z,12.61
2023-01-04T11:49:25.626Z,13.34
2023-01-04T11:54:28.094Z,13.88
2023-01-04T11:59:30.827Z,13.76
2023-01-04T12:04:35.529Z,13.21
2023-01-04T12:09:38.034Z,14.14
2023-01-04T12:14:48.196Z,14.44
2023-01-04T12:19:54.094Z,14.62
2023-01-04T12:25:07.019Z,14.41
2023-01-04T12:30:35.078Z,14.38
2023-01-04T12:36:08.393Z,14.76
2023-01-04T12:41:10.648Z,14.85
2023-01-04T12:46:49.420Z,14.82
2023-01-04T12:57:40.505Z,14.11
2023-01-04T13:03:11.604Z,13.72
2023-01-04T13:08:18.820Z,14.27
2023-01-04T13:14:00.764Z,14.35
2023-01-04T13:19:18.479Z,14.62
2023-01-04T13:24:32.512Z,14.68
2023-01-04T13:29:37.230Z,14.46
2023-01-04T13:35:17.515Z,14.81
2023-01-04T13:40:33.940Z,14.79
2023-01-04T13:46:03.804Z,14.75
2023-01-04T13:51:30.705Z,14.50
2023-01-04T13:56:38.092Z,14.45
2023-01-04T14:01:52.798Z,14.43
2023-01-04T14:07:01.564Z,14.31
2023-01-04T14:12:16.388Z,14.79
2023-01-04T14:17:48.623Z,14.71
2023-01-04T14:22:55.624Z,14.70
2023-01-04T14:28:22.461Z,14.87
2023-01-04T14:33:36.647Z,15.12
2023-01-04T14:38:46.269Z,15.12
2023-01-04T14:44:01.716Z,14.74
2023-01-04T14:49:04.036Z,15.20
2023-01-04T14:54:07.382Z,15.64
2023-01-04T14:59:12.608Z,15.61
2023-01-04T15:04:15.012Z,14.81
2023-01-04T15:09:28.728Z,14.13
2023-01-04T15:14:31.109Z,13.93
2023-01-04T15:19:38.328Z,13.27
2023-01-04T15:24:40.908Z,13.22
2023-01-04T15:29:43.283Z,12.89
2023-01-04T15:34:50.183Z,13.15
2023-01-04T15:39:55.366Z,12.93
2023-01-04T15:45:04.623Z,12.56
2023-01-04T15:50:09.174Z,12.49
2023-01-04T15:55:16.640Z,12.17
2023-01-04T16:00:21.406Z,11.70
2023-01-04T16:05:23.577Z,11.93
2023-01-04T16:10:27.141Z,11.76
2023-01-04T16:15:29.367Z,11.74
2023-01-04T16:20:33.387Z,11.85
2023-01-04T16:31:25.405Z,11.62
2023-01-04T16:36:28.033Z,11.67
2023-01-04T16:41:30.669Z,11.61
2023-01-04T16:46:37.715Z,11.58
2023-01-04T16:51:42.120Z,11.01
2023-01-04T16:56:45.824Z,11.46
2023-01-04T17:01:55.886Z,11.12
2023-01-04T17:07:01.198Z,11.12
2023-01-04T17:17:25.710Z,10.96
2023-01-04T17:22:32.468Z,11.21
2023-01-04T17:27:36.755Z,11.03
2023-01-04T17:32:39.081Z,10.82
2023-01-04T17:37:41.269Z,10.94
2023-01-04T17:42:45.333Z,10.45
2023-01-04T17:47:47.798Z,10.82
2023-01-04T17:52:51.212Z,10.96
2023-01-04T17:57:53.318Z,10.66
2023-01-04T18:02:55.509Z,10.57
2023-01-04T18:07:57.859Z,10.66
2023-01-04T18:12:59.961Z,10.48
2023-01-04T18:18:02.085Z,10.46
2023-01-04T18:23:04.303Z,10.35
2023-01-04T18:28:06.570Z,10.13
2023-01-04T18:33:08.955Z,10.24
2023-01-04T18:38:11.092Z,10.19
2023-01-04T18:43:13.489Z,10.14
2023-01-04T18:48:15.912Z,10.09
2023-01-04T18:53:18.047Z,10.06
2023-01-04T18:58:20.211Z,9.90
2023-01-04T19:03:22.404Z,9.99
2023-01-04T19:08:25.162Z,10.02
2023-01-04T19:13:27.821Z,9.85
2023-01-04T19:18:30.186Z,9.75
2023-01-04T19:23:32.761Z,9.67
2023-01-04T19:28:35.145Z,9.20
2023-01-04T19:33:38.129Z,9.21
2023-01-04T19:38:40.487Z,9.13
2023-01-04T19:43:43.347Z,9.29
2023-01-04T19:48:46.685Z,9.26
2023-01-04T19:53:48.782Z,9.22
2023-01-04T19:58:51.221Z,9.27
2023-01-04T20:03:53.721Z,9.07
2023-01-04T20:08:55.898Z,9.13
2023-01-04T20:13:58.143Z,9.21
2023-01-04T20:19:00.528Z,9.25
2023-01-04T20:24:02.765Z,9.21
2023-01-04T20:29:05.846Z,9.21
2023-01-04T20:34:08.510Z,9.13
2023-01-04T20:39:10.860Z,9.16
2023-01-04T20:44:13.225Z,9.10
2023-01-04T20:49:15.709Z,8.90
2023-01-04T20:54:17.998Z,9.03
2023-01-04T20:59:20.218Z,9.08
2023-01-04T21:04:22.615Z,8.84
2023-01-04T21:09:24.821Z,8.94
2023-01-04T21:14:28.934Z,8.97
2023-01-04T21:19:31.133Z,8.80
2023-01-04T21:24:34.779Z,8.76
2023-01-04T21:29:37.691Z,8.47
2023-01-04T21:34:39.949Z,8.45
2023-01-04T21:39:42.165Z,8.54
2023-01-04T21:44:44.295Z,8.54
2023-01-04T21:49:46.479Z,8.58
2023-01-04T21:54:49.165Z,8.45
2023-01-04T21:59:51.357Z,8.39
2023-01-04T22:04:55.752Z,8.28
2023-01-04T22:09:57.965Z,8.17
2023-01-04T22:15:00.117Z,8.33
2023-01-04T22:20:06.693Z,8.36
2023-01-04T22:25:09.464Z,8.44
2023-01-04T22:30:12.067Z,8.34
2023-01-04T22:35:14.340Z,8.21
2023-01-04T22:40:16.643Z,8.56
2023-01-04T22:45:18.859Z,8.61
2023-01-04T22:50:20.964Z,8.58
2023-01-04T22:55:23.791Z,8.66
2023-01-04T23:00:25.921Z,8.53
2023-01-04T23:05:29.082Z,8.50
2023-01-04T23:10:33.425Z,8.40
2023-01-04T23:15:38.025Z,8.14
2023-01-04T23:20:41.150Z,8.11
2023-01-04T23:25:43.182Z,8.15
2023-01-04T23:30:45.372Z,8.26
2023-01-04T23:35:47.449Z,8.28
2023-01-04T23:40:49.576Z,8.14
2023-01-04T23:45:56.008Z,8.22
2023-01-04T23:50:58.232Z,8.16
2023-01-04T23:56:03.644Z,8.30
